createdAt,value
2023-02-26T00:00:53.516Z,1003.58
2023-02-26T00:01:53.508Z,1003.6
2023-02-26T00:02:53.475Z,1003.58
2023-02-26T00:03:53.404Z,1003.6
2023-02-26T00:04:53.368Z,1003.63
2023-02-26T00:05:53.331Z,1003.6
2023-02-26T00:06:53.949Z,1003.71
2023-02-26T00:07:53.272Z,1003.63
2023-02-26T00:08:53.235Z,1003.68
2023-02-26T00:09:53.202Z,1003.74
2023-02-26T00:10:53.140Z,1003.73
2023-02-26T00:11:53.104Z,1003.77
2023-02-26T00:12:53.083Z,1003.72
2023-02-26T00:13:53.028Z,1003.76
2023-02-26T00:14:52.990Z,1003.8
2023-02-26T00:15:52.984Z,1003.84
2023-02-26T00:16:52.943Z,1003.77
2023-02-26T00:17:52.877Z,1003.85
2023-02-26T00:18:52.836Z,1003.82
2023-02-26T00:19:52.806Z,1003.86
2023-02-26T00:20:52.760Z,1003.91
2023-02-26T00:21:52.725Z,1003.85
2023-02-26T00:22:52.688Z,1003.86
2023-02-26T00:23:52.649Z,1003.87
2023-02-26T00:24:52.610Z,1003.89
2023-02-26T00:25:52.596Z,1003.8
2023-02-26T00:26:52.535Z,1003.92
2023-02-26T00:27:52.512Z,1003.88
2023-02-26T00:28:52.459Z,1003.89
2023-02-26T00:29:52.422Z,1003.96
2023-02-26T00:30:52.430Z,1004.04
2023-02-26T00:31:52.436Z,1004.02
2023-02-26T00:32:52.309Z,1004.04
2023-02-26T00:33:52.276Z,1003.97
2023-02-26T00:34:52.235Z,1004
2023-02-26T00:35:52.199Z,1003.91
2023-02-26T00:36:52.158Z,1003.97
2023-02-26T00:37:52.125Z,1003.97
2023-02-26T00:38:52.085Z,1003.92
2023-02-26T00:39:52.047Z,1003.96
2023-02-26T00:40:52.007Z,1004
2023-02-26T00:41:52.019Z,1004.01
2023-02-26T00:42:51.935Z,1003.99
2023-02-26T00:43:51.895Z,1004.04
2023-02-26T00:44:51.861Z,1004.05
2023-02-26T00:45:51.833Z,1004.01
2023-02-26T00:46:51.781Z,1004.08
2023-02-26T00:47:51.741Z,1004.01
2023-02-26T00:48:51.707Z,1003.99
2023-02-26T00:49:51.666Z,1004.05
2023-02-26T00:50:51.630Z,1004.07
2023-02-26T00:51:51.604Z,1004.05
2023-02-26T00:52:51.556Z,1004.08
2023-02-26T00:53:51.517Z,1004.05
2023-02-26T00:54:51.480Z,1004.08
2023-02-26T00:55:51.441Z,1004.1
2023-02-26T00:56:51.407Z,1004.11
2023-02-26T00:57:51.391Z,1004.09
2023-02-26T00:58:51.329Z,1004.17
2023-02-26T00:59:51.299Z,1004.18
2023-02-26T01:00:51.257Z,1004.15
2023-02-26T01:01:51.253Z,1004.12
2023-02-26T01:02:51.177Z,1004.12
2023-02-26T01:03:51.192Z,1004.15
2023-02-26T01:04:51.103Z,1004.21
2023-02-26T01:05:51.064Z,1004.26
2023-02-26T01:06:51.028Z,1004.21
2023-02-26T01:07:50.985Z,1004.27
2023-02-26T01:08:50.952Z,1004.28
2023-02-26T01:09:50.910Z,1004.33
2023-02-26T01:10:50.875Z,1004.26
2023-02-26T01:11:50.838Z,1004.29
2023-02-26T01:12:50.797Z,1004.3
2023-02-26T01:13:50.781Z,1004.36
2023-02-26T01:14:50.732Z,1004.32
2023-02-26T01:15:50.706Z,1004.34
2023-02-26T01:16:50.646Z,1004.34
2023-02-26T01:17:50.612Z,1004.4
2023-02-26T01:18:50.571Z,1004.44
2023-02-26T01:19:50.532Z,1004.41
2023-02-26T01:20:50.594Z,1004.39
2023-02-26T01:21:50.454Z,1004.4
2023-02-26T01:22:50.418Z,1004.42
2023-02-26T01:23:50.388Z,1004.34
2023-02-26T01:24:50.344Z,1004.37
2023-02-26T01:25:50.306Z,1004.44
2023-02-26T01:26:50.265Z,1004.49
2023-02-26T01:27:50.230Z,1004.45
2023-02-26T01:28:50.189Z,1004.49
2023-02-26T01:29:50.180Z,1004.5
2023-02-26T01:30:50.285Z,1004.51
2023-02-26T01:31:50.271Z,1004.47
2023-02-26T01:32:50.116Z,1004.48
2023-02-26T01:33:50.000Z,1004.5
2023-02-26T01:34:49.962Z,1004.53
2023-02-26T01:35:49.932Z,1004.54
2023-02-26T01:36:49.888Z,1004.5
2023-02-26T01:37:49.852Z,1004.49
2023-02-26T01:38:49.812Z,1004.56
2023-02-26T01:39:49.776Z,1004.56
2023-02-26T01:40:49.742Z,1004.56
2023-02-26T01:41:49.703Z,1004.56
2023-02-26T01:42:49.662Z,1004.53
2023-02-26T01:43:49.626Z,1004.56
2023-02-26T01:44:49.587Z,1004.58
2023-02-26T01:45:49.575Z,1004.54
2023-02-26T01:46:49.557Z,1004.6
2023-02-26T01:47:49.481Z,1004.6
2023-02-26T01:48:49.438Z,1004.59
2023-02-26T01:49:49.399Z,1004.6
2023-02-26T01:50:49.360Z,1004.64
2023-02-26T01:51:49.349Z,1004.63
2023-02-26T01:52:49.340Z,1004.62
2023-02-26T01:53:49.253Z,1004.61
2023-02-26T01:54:49.209Z,1004.62
2023-02-26T01:55:49.173Z,1004.63
2023-02-26T01:56:49.134Z,1004.67
2023-02-26T01:57:49.096Z,1004.62
2023-02-26T01:58:49.058Z,1004.64
2023-02-26T01:59:49.039Z,1004.65
2023-02-26T02:00:48.981Z,1004.68
2023-02-26T02:01:48.973Z,1004.73
2023-02-26T02:02:49.099Z,1004.73
2023-02-26T02:03:48.874Z,1004.75
2023-02-26T02:04:48.840Z,1004.76
2023-02-26T02:05:48.797Z,1004.76
2023-02-26T02:06:48.753Z,1004.7
2023-02-26T02:07:48.718Z,1004.68
2023-02-26T02:08:48.678Z,1004.72
2023-02-26T02:09:48.667Z,1004.7
2023-02-26T02:10:48.604Z,1004.73
2023-02-26T02:11:48.562Z,1004.78
2023-02-26T02:12:48.524Z,1004.71
2023-02-26T02:13:48.487Z,1004.81
2023-02-26T02:14:48.457Z,1004.77
2023-02-26T02:15:48.407Z,1004.75
2023-02-26T02:16:48.430Z,1004.78
2023-02-26T02:17:48.357Z,1004.76
2023-02-26T02:18:48.293Z,1004.75
2023-02-26T02:19:48.253Z,1004.74
2023-02-26T02:20:48.222Z,1004.76
2023-02-26T02:21:48.177Z,1004.74
2023-02-26T02:22:48.138Z,1004.74
2023-02-26T02:23:48.112Z,1004.74
2023-02-26T02:24:48.069Z,1004.78
2023-02-26T02:25:48.025Z,1004.8
2023-02-26T02:26:47.988Z,1004.83
2023-02-26T02:27:47.955Z,1004.84
2023-02-26T02:28:47.911Z,1004.81
2023-02-26T02:29:47.871Z,1004.89
2023-02-26T02:30:47.849Z,1004.85
2023-02-26T02:31:48.018Z,1004.86
2023-02-26T02:32:47.862Z,1004.88
2023-02-26T02:33:47.738Z,1004.89
2023-02-26T02:34:47.679Z,1004.86
2023-02-26T02:35:47.641Z,1004.86
2023-02-26T02:36:47.608Z,1004.88
2023-02-26T02:37:47.563Z,1004.95
2023-02-26T02:38:47.528Z,1004.97
2023-02-26T02:39:47.491Z,1004.96
2023-02-26T02:40:47.456Z,1004.99
2023-02-26T02:41:47.410Z,1004.99
2023-02-26T02:42:47.374Z,1005.02
2023-02-26T02:43:47.342Z,1004.99
2023-02-26T02:44:47.301Z,1005.02
2023-02-26T02:45:47.267Z,1005
2023-02-26T02:46:47.314Z,1005.02
2023-02-26T02:47:47.185Z,1005.06
2023-02-26T02:48:47.148Z,1005.05
2023-02-26T02:49:47.133Z,1005.05
2023-02-26T02:50:47.075Z,1005.09
2023-02-26T02:51:47.032Z,1005.09
2023-02-26T02:52:46.996Z,1005.14
2023-02-26T02:53:46.959Z,1005.12
2023-02-26T02:54:46.931Z,1005.12
2023-02-26T02:55:46.880Z,1005.15
2023-02-26T02:56:46.846Z,1005.12
2023-02-26T02:57:46.804Z,1005.17
2023-02-26T02:58:46.778Z,1005.22
2023-02-26T02:59:46.731Z,1005.26
2023-02-26T03:00:46.713Z,1005.25
2023-02-26T03:01:46.654Z,1005.22
2023-02-26T03:02:46.708Z,1005.21
2023-02-26T03:03:46.574Z,1005.2
2023-02-26T03:04:46.541Z,1005.25
2023-02-26T03:05:46.524Z,1005.22
2023-02-26T03:06:46.462Z,1005.23
2023-02-26T03:07:46.423Z,1005.23
2023-02-26T03:08:46.385Z,1005.24
2023-02-26T03:09:46.349Z,1005.27
2023-02-26T03:10:46.309Z,1005.26
2023-02-26T03:11:46.272Z,1005.29
2023-02-26T03:12:46.233Z,1005.32
2023-02-26T03:13:46.202Z,1005.34
2023-02-26T03:14:46.159Z,1005.29
2023-02-26T03:15:46.124Z,1005.26
2023-02-26T03:16:46.104Z,1005.33
2023-02-26T03:17:46.042Z,1005.36
2023-02-26T03:18:46.005Z,1005.34
2023-02-26T03:19:45.968Z,1005.37
2023-02-26T03:20:45.929Z,1005.39
2023-02-26T03:21:45.918Z,1005.44
2023-02-26T03:22:45.852Z,1005.38
2023-02-26T03:23:45.816Z,1005.43
2023-02-26T03:24:45.778Z,1005.44
2023-02-26T03:25:45.746Z,1005.42
2023-02-26T03:26:45.701Z,1005.45
2023-02-26T03:27:45.672Z,1005.46
2023-02-26T03:28:45.624Z,1005.45
2023-02-26T03:29:45.590Z,1005.46
2023-02-26T03:30:45.600Z,1005.44
2023-02-26T03:31:45.617Z,1005.47
2023-02-26T03:32:45.471Z,1005.49
2023-02-26T03:33:45.439Z,1005.56
2023-02-26T03:34:45.397Z,1005.5
2023-02-26T03:35:45.379Z,1005.53
2023-02-26T03:36:45.321Z,1005.59
2023-02-26T03:37:45.305Z,1005.55
2023-02-26T03:38:45.243Z,1005.6
2023-02-26T03:39:45.205Z,1005.56
2023-02-26T03:40:45.165Z,1005.62
2023-02-26T03:41:45.131Z,1005.61
2023-02-26T03:42:45.090Z,1005.64
2023-02-26T03:43:45.051Z,1005.62
2023-02-26T03:44:45.011Z,1005.68
2023-02-26T03:45:45.028Z,1005.73
2023-02-26T03:46:44.935Z,1005.76
2023-02-26T03:47:44.902Z,1005.77
2023-02-26T03:48:44.880Z,1005.75
2023-02-26T03:49:44.827Z,1005.76
2023-02-26T03:50:44.782Z,1005.78
2023-02-26T03:51:44.757Z,1005.8
2023-02-26T03:52:44.704Z,1005.84
2023-02-26T03:53:44.697Z,1005.82
2023-02-26T03:54:44.632Z,1005.83
2023-02-26T03:55:44.599Z,1005.83
2023-02-26T03:56:44.550Z,1005.84
2023-02-26T03:57:44.512Z,1005.92
2023-02-26T03:58:44.473Z,1005.93
2023-02-26T03:59:44.436Z,1005.94
2023-02-26T04:00:44.399Z,1005.98
2023-02-26T04:01:44.357Z,1005.97
2023-02-26T04:02:44.322Z,1005.97
2023-02-26T04:03:44.280Z,1005.98
2023-02-26T04:04:44.244Z,1005.97
2023-02-26T04:05:44.203Z,1005.99
2023-02-26T04:06:44.172Z,1005.97
2023-02-26T04:07:44.127Z,1006.01
2023-02-26T04:08:44.090Z,1006
2023-02-26T04:09:44.088Z,1006.03
2023-02-26T04:10:44.024Z,1006.03
2023-02-26T04:11:43.980Z,1006.07
2023-02-26T04:12:43.936Z,1006.01
2023-02-26T04:13:43.898Z,1006.1
2023-02-26T04:14:43.858Z,1006.11
2023-02-26T04:15:43.827Z,1006.14
2023-02-26T04:16:43.856Z,1006.13
2023-02-26T04:17:43.747Z,1006.2
2023-02-26T04:18:43.708Z,1006.17
2023-02-26T04:19:43.669Z,1006.18
2023-02-26T04:20:43.629Z,1006.2
2023-02-26T04:21:43.597Z,1006.19
2023-02-26T04:22:43.561Z,1006.18
2023-02-26T04:23:43.519Z,1006.18
2023-02-26T04:24:43.480Z,1006.22
2023-02-26T04:25:43.463Z,1006.27
2023-02-26T04:26:43.396Z,1006.22
2023-02-26T04:27:43.354Z,1006.28
2023-02-26T04:28:43.317Z,1006.29
2023-02-26T04:29:43.275Z,1006.28
2023-02-26T04:30:43.312Z,1006.3
2023-02-26T04:31:43.310Z,1006.3
2023-02-26T04:32:43.161Z,1006.32
2023-02-26T04:33:43.121Z,1006.36
2023-02-26T04:34:43.093Z,1006.32
2023-02-26T04:35:43.045Z,1006.38
2023-02-26T04:36:43.006Z,1006.37
2023-02-26T04:37:42.967Z,1006.4
2023-02-26T04:38:42.930Z,1006.39
2023-02-26T04:39:42.888Z,1006.44
2023-02-26T04:40:42.850Z,1006.5
2023-02-26T04:41:42.832Z,1006.39
2023-02-26T04:42:42.772Z,1006.43
2023-02-26T04:43:42.737Z,1006.44
2023-02-26T04:44:42.695Z,1006.47
2023-02-26T04:45:42.654Z,1006.43
2023-02-26T04:46:42.722Z,1006.46
2023-02-26T04:47:42.579Z,1006.45
2023-02-26T04:48:42.545Z,1006.43
2023-02-26T04:49:42.506Z,1006.47
2023-02-26T04:50:42.463Z,1006.52
2023-02-26T04:51:42.434Z,1006.46
2023-02-26T04:52:42.387Z,1006.47
2023-02-26T04:53:42.347Z,1006.49
2023-02-26T04:54:42.308Z,1006.57
2023-02-26T04:55:42.274Z,1006.53
2023-02-26T04:56:42.230Z,1006.56
2023-02-26T04:57:42.219Z,1006.61
2023-02-26T04:58:42.154Z,1006.56
2023-02-26T04:59:42.116Z,1006.58
2023-02-26T05:00:42.076Z,1006.65
2023-02-26T05:01:42.077Z,1006.58
2023-02-26T05:02:42.001Z,1006.59
2023-02-26T05:03:41.963Z,1006.67
2023-02-26T05:04:41.985Z,1006.65
2023-02-26T05:05:41.886Z,1006.61
2023-02-26T05:06:41.847Z,1006.68
2023-02-26T05:07:41.811Z,1006.67
2023-02-26T05:08:41.769Z,1006.7
2023-02-26T05:09:41.736Z,1006.74
2023-02-26T05:10:41.695Z,1006.72
2023-02-26T05:11:41.656Z,1006.73
2023-02-26T05:12:41.616Z,1006.73
2023-02-26T05:13:41.605Z,1006.75
2023-02-26T05:14:41.541Z,1006.77
2023-02-26T05:15:41.512Z,1006.75
2023-02-26T05:16:41.461Z,1006.77
2023-02-26T05:17:41.423Z,1006.71
2023-02-26T05:18:41.383Z,1006.73
2023-02-26T05:19:41.349Z,1006.72
2023-02-26T05:20:41.307Z,1006.77
2023-02-26T05:21:41.268Z,1006.79
2023-02-26T05:22:41.233Z,1006.83
2023-02-26T05:23:41.191Z,1006.85
2023-02-26T05:24:41.157Z,1006.93
2023-02-26T05:25:41.119Z,1006.89
2023-02-26T05:26:41.074Z,1006.91
2023-02-26T05:27:41.037Z,1006.98
2023-02-26T05:28:41.009Z,1006.99
2023-02-26T05:29:40.995Z,1006.98
2023-02-26T05:30:40.962Z,1007.01
2023-02-26T05:31:41.102Z,1007
2023-02-26T05:32:40.848Z,1007.01
2023-02-26T05:33:40.802Z,1007.05
2023-02-26T05:34:40.783Z,1007.07
2023-02-26T05:35:40.748Z,1007.1
2023-02-26T05:36:40.702Z,1007.16
2023-02-26T05:37:40.648Z,1007.18
2023-02-26T05:38:40.607Z,1007.21
2023-02-26T05:39:40.570Z,1007.19
2023-02-26T05:40:40.530Z,1007.2
2023-02-26T05:41:40.490Z,1007.24
2023-02-26T05:42:40.466Z,1007.18
2023-02-26T05:43:40.412Z,1007.22
2023-02-26T05:44:40.373Z,1007.23
2023-02-26T05:45:40.373Z,1007.2
2023-02-26T05:46:40.411Z,1007.28
2023-02-26T05:47:40.262Z,1007.23
2023-02-26T05:48:40.223Z,1007.24
2023-02-26T05:49:40.177Z,1007.25
2023-02-26T05:50:40.142Z,1007.23
2023-02-26T05:51:40.098Z,1007.21
2023-02-26T05:52:40.060Z,1007.25
2023-02-26T05:53:40.025Z,1007.27
2023-02-26T05:54:39.984Z,1007.32
2023-02-26T05:55:39.943Z,1007.31
2023-02-26T05:56:39.913Z,1007.31
2023-02-26T05:57:39.867Z,1007.45
2023-02-26T05:58:39.826Z,1007.46
2023-02-26T05:59:39.787Z,1007.42
2023-02-26T06:00:39.748Z,1007.44
2023-02-26T06:01:39.792Z,1007.44
2023-02-26T06:02:39.680Z,1007.47
2023-02-26T06:03:39.631Z,1007.46
2023-02-26T06:04:39.596Z,1007.43
2023-02-26T06:05:39.552Z,1007.48
2023-02-26T06:06:39.547Z,1007.48
2023-02-26T06:07:39.513Z,1007.5
2023-02-26T06:08:39.464Z,1007.52
2023-02-26T06:09:39.394Z,1007.52
2023-02-26T06:10:39.358Z,1007.58
2023-02-26T06:11:39.318Z,1007.58
2023-02-26T06:12:39.280Z,1007.64
2023-02-26T06:13:39.240Z,1007.65
2023-02-26T06:14:39.201Z,1007.67
2023-02-26T06:15:39.162Z,1007.66
2023-02-26T06:16:39.152Z,1007.66
2023-02-26T06:17:40.758Z,1007.7
2023-02-26T06:18:39.046Z,1007.7
2023-02-26T06:19:39.007Z,1007.72
2023-02-26T06:20:38.973Z,1007.77
2023-02-26T06:21:38.930Z,1007.78
2023-02-26T06:22:38.889Z,1007.82
2023-02-26T06:23:38.848Z,1007.88
2023-02-26T06:24:38.812Z,1007.9
2023-02-26T06:25:38.781Z,1007.89
2023-02-26T06:26:38.733Z,1007.86
2023-02-26T06:27:38.694Z,1007.91
2023-02-26T06:28:38.656Z,1007.94
2023-02-26T06:29:38.622Z,1007.96
2023-02-26T06:30:38.622Z,1007.98
2023-02-26T06:31:38.717Z,1008.01
2023-02-26T06:32:38.533Z,1007.98
2023-02-26T06:33:38.503Z,1008.02
2023-02-26T06:34:38.423Z,1008.07
2023-02-26T06:35:38.389Z,1008.07
2023-02-26T06:36:38.346Z,1008.08
2023-02-26T06:37:38.315Z,1008.13
2023-02-26T06:38:38.268Z,1008.15
2023-02-26T06:39:38.232Z,1008.14
2023-02-26T06:40:38.196Z,1008.18
2023-02-26T06:41:38.154Z,1008.17
2023-02-26T06:42:38.114Z,1008.18
2023-02-26T06:43:38.077Z,1008.17
2023-02-26T06:44:38.037Z,1008.17
2023-02-26T06:45:38.054Z,1008.21
2023-02-26T06:46:38.009Z,1008.21
2023-02-26T06:47:37.928Z,1008.25
2023-02-26T06:48:37.882Z,1008.25
2023-02-26T06:49:37.866Z,1008.28
2023-02-26T06:50:37.816Z,1008.27
2023-02-26T06:51:37.768Z,1008.33
2023-02-26T06:52:37.726Z,1008.37
2023-02-26T06:53:37.688Z,1008.39
2023-02-26T06:54:37.651Z,1008.41
2023-02-26T06:55:37.612Z,1008.45
2023-02-26T06:56:37.570Z,1008.44
2023-02-26T06:57:37.532Z,1008.44
2023-02-26T06:58:37.491Z,1008.51
2023-02-26T06:59:37.458Z,1008.49
2023-02-26T07:00:37.415Z,1008.47
2023-02-26T07:01:37.377Z,1008.54
2023-02-26T07:02:37.370Z,1008.51
2023-02-26T07:03:37.299Z,1008.58
2023-02-26T07:04:37.259Z,1008.54
2023-02-26T07:05:37.246Z,1008.57
2023-02-26T07:06:37.179Z,1008.58
2023-02-26T07:07:37.144Z,1008.63
2023-02-26T07:08:37.101Z,1008.61
2023-02-26T07:09:37.064Z,1008.62
2023-02-26T07:10:37.028Z,1008.63
2023-02-26T07:11:36.986Z,1008.69
2023-02-26T07:12:36.946Z,1008.66
2023-02-26T07:13:36.923Z,1008.66
2023-02-26T07:14:36.872Z,1008.66
2023-02-26T07:15:36.831Z,1008.73
2023-02-26T07:16:36.831Z,1008.77
2023-02-26T07:17:36.755Z,1008.72
2023-02-26T07:18:36.722Z,1008.79
2023-02-26T07:19:36.688Z,1008.78
2023-02-26T07:20:36.638Z,1008.78
2023-02-26T07:21:36.625Z,1008.78
2023-02-26T07:22:36.560Z,1008.82
2023-02-26T07:23:36.524Z,1008.83
2023-02-26T07:24:36.484Z,1008.82
2023-02-26T07:25:36.444Z,1008.79
2023-02-26T07:26:36.418Z,1008.83
2023-02-26T07:27:36.370Z,1008.82
2023-02-26T07:28:36.338Z,1008.9
2023-02-26T07:29:36.292Z,1008.88
2023-02-26T07:30:36.380Z,1008.96
2023-02-26T07:31:36.349Z,1009.03
2023-02-26T07:32:36.236Z,1008.95
2023-02-26T07:33:36.147Z,1009
2023-02-26T07:34:36.100Z,1009
2023-02-26T07:35:36.059Z,1009.03
2023-02-26T07:36:36.026Z,1009.04
2023-02-26T07:37:36.014Z,1009.03
2023-02-26T07:38:35.944Z,1009.05
2023-02-26T07:39:35.904Z,1009.06
2023-02-26T07:40:35.866Z,1009.04
2023-02-26T07:41:35.828Z,1009.11
2023-02-26T07:42:35.791Z,1009.1
2023-02-26T07:43:35.749Z,1009.14
2023-02-26T07:44:35.712Z,1009.18
2023-02-26T07:45:35.671Z,1009.16
2023-02-26T07:46:35.761Z,1009.13
2023-02-26T07:47:35.621Z,1009.15
2023-02-26T07:48:35.642Z,1009.13
2023-02-26T07:49:35.518Z,1009.15
2023-02-26T07:50:35.483Z,1009.24
2023-02-26T07:51:35.439Z,1009.26
2023-02-26T07:52:35.403Z,1009.31
2023-02-26T07:53:35.388Z,1009.3
2023-02-26T07:54:35.339Z,1009.34
2023-02-26T07:55:35.286Z,1009.31
2023-02-26T07:56:35.254Z,1009.28
2023-02-26T07:57:35.209Z,1009.31
2023-02-26T07:58:35.175Z,1009.32
2023-02-26T07:59:35.137Z,1009.32
2023-02-26T08:00:35.096Z,1009.36
2023-02-26T08:01:35.102Z,1009.31
2023-02-26T08:02:35.019Z,1009.34
2023-02-26T08:03:34.983Z,1009.34
2023-02-26T08:04:35.046Z,1009.35
2023-02-26T08:05:34.912Z,1009.39
2023-02-26T08:06:34.867Z,1009.39
2023-02-26T08:07:34.826Z,1009.38
2023-02-26T08:08:34.804Z,1009.38
2023-02-26T08:09:34.777Z,1009.43
2023-02-26T08:10:34.711Z,1009.41
2023-02-26T08:11:34.674Z,1009.38
2023-02-26T08:12:34.789Z,1009.41
2023-02-26T08:13:34.595Z,1009.43
2023-02-26T08:14:34.570Z,1009.42
2023-02-26T08:15:34.566Z,1009.45
2023-02-26T08:16:34.486Z,1009.48
2023-02-26T08:17:34.444Z,1009.46
2023-02-26T08:18:34.406Z,1009.51
2023-02-26T08:19:34.377Z,1009.55
2023-02-26T08:20:34.335Z,1009.55
2023-02-26T08:21:34.293Z,1009.58
2023-02-26T08:22:34.259Z,1009.52
2023-02-26T08:23:34.218Z,1009.55
2023-02-26T08:24:34.178Z,1009.55
2023-02-26T08:25:34.171Z,1009.6
2023-02-26T08:26:34.102Z,1009.62
2023-02-26T08:27:34.066Z,1009.62
2023-02-26T08:28:34.028Z,1009.68
2023-02-26T08:29:33.988Z,1009.63
2023-02-26T08:30:33.957Z,1009.66
2023-02-26T08:31:33.995Z,1009.66
2023-02-26T08:32:33.923Z,1009.65
2023-02-26T08:33:33.841Z,1009.73
2023-02-26T08:34:33.799Z,1009.73
2023-02-26T08:35:33.761Z,1009.76
2023-02-26T08:36:33.722Z,1009.71
2023-02-26T08:37:33.687Z,1009.81
2023-02-26T08:38:33.652Z,1009.77
2023-02-26T08:39:33.611Z,1009.81
2023-02-26T08:40:33.572Z,1009.75
2023-02-26T08:41:33.562Z,1009.83
2023-02-26T08:42:33.500Z,1009.87
2023-02-26T08:43:33.465Z,1009.88
2023-02-26T08:44:33.424Z,1009.86
2023-02-26T08:45:33.386Z,1009.85
2023-02-26T08:46:33.387Z,1009.89
2023-02-26T08:47:34.093Z,1009.93
2023-02-26T08:48:33.286Z,1009.85
2023-02-26T08:49:33.238Z,1009.83
2023-02-26T08:50:33.197Z,1009.89
2023-02-26T08:51:33.163Z,1009.81
2023-02-26T08:52:33.125Z,1009.88
2023-02-26T08:53:33.088Z,1009.91
2023-02-26T08:54:33.050Z,1009.88
2023-02-26T08:55:33.014Z,1009.92
2023-02-26T08:56:32.974Z,1009.96
2023-02-26T08:57:32.969Z,1009.96
2023-02-26T08:58:32.900Z,1009.99
2023-02-26T08:59:32.865Z,1009.91
2023-02-26T09:00:32.826Z,1009.97
2023-02-26T09:01:32.829Z,1009.9
2023-02-26T09:02:32.754Z,1009.98
2023-02-26T09:03:32.716Z,1009.95
2023-02-26T09:04:32.679Z,1009.91
2023-02-26T09:05:32.641Z,1010.01
2023-02-26T09:06:32.616Z,1010.03
2023-02-26T09:07:32.573Z,1010.04
2023-02-26T09:08:32.531Z,1010.07
2023-02-26T09:09:32.497Z,1010.15
2023-02-26T09:10:32.458Z,1010.12
2023-02-26T09:11:32.448Z,1010.13
2023-02-26T09:12:32.380Z,1010.12
2023-02-26T09:13:32.367Z,1010.22
2023-02-26T09:14:32.307Z,1010.19
2023-02-26T09:15:32.274Z,1010.33
2023-02-26T09:16:32.306Z,1010.39
2023-02-26T09:17:32.196Z,1010.31
2023-02-26T09:18:32.159Z,1010.25
2023-02-26T09:19:32.219Z,1010.28
2023-02-26T09:20:32.090Z,1010.26
2023-02-26T09:21:32.052Z,1010.28
2023-02-26T09:22:32.032Z,1010.23
2023-02-26T09:23:31.971Z,1010.25
2023-02-26T09:24:31.953Z,1010.26
2023-02-26T09:25:31.896Z,1010.36
2023-02-26T09:26:31.860Z,1010.34
2023-02-26T09:27:31.823Z,1010.31
2023-02-26T09:28:31.883Z,1010.36
2023-02-26T09:29:31.775Z,1010.36
2023-02-26T09:30:31.713Z,1010.42
2023-02-26T09:31:31.818Z,1010.37
2023-02-26T09:32:31.760Z,1010.37
2023-02-26T09:33:31.601Z,1010.39
2023-02-26T09:34:31.566Z,1010.37
2023-02-26T09:35:31.527Z,1010.37
2023-02-26T09:36:31.492Z,1010.44
2023-02-26T09:37:31.453Z,1010.45
2023-02-26T09:38:31.419Z,1010.4
2023-02-26T09:39:31.384Z,1010.53
2023-02-26T09:40:31.347Z,1010.46
2023-02-26T09:41:31.308Z,1010.41
2023-02-26T09:42:31.273Z,1010.41
2023-02-26T09:43:31.236Z,1010.39
2023-02-26T09:44:31.199Z,1010.47
2023-02-26T09:45:31.191Z,1010.43
2023-02-26T09:46:31.127Z,1010.48
2023-02-26T09:47:31.094Z,1010.52
2023-02-26T09:48:31.059Z,1010.52
2023-02-26T09:49:31.016Z,1010.55
2023-02-26T09:50:30.980Z,1010.58
2023-02-26T09:51:30.944Z,1010.58
2023-02-26T09:52:30.907Z,1010.66
2023-02-26T09:53:30.876Z,1010.71
2023-02-26T09:54:30.841Z,1010.62
2023-02-26T09:55:30.799Z,1010.63
2023-02-26T09:56:30.765Z,1010.73
2023-02-26T09:57:30.729Z,1010.81
2023-02-26T09:58:30.696Z,1010.75
2023-02-26T09:59:30.660Z,1010.74
2023-02-26T10:00:30.642Z,1010.73
2023-02-26T10:01:30.652Z,1010.72
2023-02-26T10:02:30.548Z,1010.74
2023-02-26T10:03:30.513Z,1010.72
2023-02-26T10:04:30.519Z,1010.83
2023-02-26T10:05:30.446Z,1010.77
2023-02-26T10:06:30.407Z,1010.82
2023-02-26T10:07:30.373Z,1010.76
2023-02-26T10:08:30.332Z,1010.77
2023-02-26T10:09:30.300Z,1010.83
2023-02-26T10:10:32.418Z,1010.8
2023-02-26T10:11:30.225Z,1010.95
2023-02-26T10:12:30.187Z,1010.9
2023-02-26T10:13:30.154Z,1010.89
2023-02-26T10:14:30.120Z,1010.93
2023-02-26T10:15:30.080Z,1010.96
2023-02-26T10:16:30.528Z,1011.01
2023-02-26T10:17:30.042Z,1010.97
2023-02-26T10:18:29.977Z,1011.03
2023-02-26T10:19:29.938Z,1010.94
2023-02-26T10:20:29.928Z,1010.97
2023-02-26T10:21:29.866Z,1011.04
2023-02-26T10:22:29.829Z,1010.96
2023-02-26T10:23:29.805Z,1010.95
2023-02-26T10:24:29.756Z,1010.95
2023-02-26T10:25:29.724Z,1010.97
2023-02-26T10:26:29.683Z,1010.91
2023-02-26T10:27:29.656Z,1010.92
2023-02-26T10:28:29.616Z,1011.07
2023-02-26T10:29:29.575Z,1011.01
2023-02-26T10:30:29.537Z,1011.05
2023-02-26T10:31:29.726Z,1010.96
2023-02-26T10:32:29.551Z,1011.02
2023-02-26T10:33:29.454Z,1011.1
2023-02-26T10:34:29.394Z,1011.04
2023-02-26T10:35:29.359Z,1010.99
2023-02-26T10:36:29.323Z,1010.99
2023-02-26T10:37:29.289Z,1010.98
2023-02-26T10:38:29.252Z,1011.09
2023-02-26T10:39:29.211Z,1011.08
2023-02-26T10:40:29.175Z,1011.05
2023-02-26T10:41:29.141Z,1011.13
2023-02-26T10:42:29.103Z,1011.06
2023-02-26T10:43:29.069Z,1011.07
2023-02-26T10:44:29.033Z,1011.05
2023-02-26T10:45:28.998Z,1011.14
2023-02-26T10:46:28.961Z,1011.08
2023-02-26T10:47:28.926Z,1011.13
2023-02-26T10:48:28.889Z,1011.11
2023-02-26T10:49:28.880Z,1011.1
2023-02-26T10:50:28.818Z,1011.08
2023-02-26T10:51:28.969Z,1011.12
2023-02-26T10:52:28.747Z,1011.14
2023-02-26T10:53:28.710Z,1011.14
2023-02-26T10:54:28.676Z,1011.18
2023-02-26T10:55:28.639Z,1011.11
2023-02-26T10:56:28.604Z,1011.15
2023-02-26T10:57:28.576Z,1011.09
2023-02-26T10:58:28.535Z,1011.15
2023-02-26T10:59:28.518Z,1011.09
2023-02-26T11:00:28.463Z,1011.13
2023-02-26T11:01:28.805Z,1011.12
2023-02-26T11:02:28.414Z,1011.19
2023-02-26T11:03:28.355Z,1011.3
2023-02-26T11:04:28.326Z,1011.31
2023-02-26T11:05:28.332Z,1011.18
2023-02-26T11:06:28.252Z,1011.29
2023-02-26T11:07:28.214Z,1011.28
2023-02-26T11:08:28.182Z,1011.27
2023-02-26T11:09:28.148Z,1011.18
2023-02-26T11:10:28.116Z,1011.2
2023-02-26T11:11:28.162Z,1011.19
2023-02-26T11:12:28.043Z,1011.34
2023-02-26T11:13:28.006Z,1011.29
2023-02-26T11:14:30.497Z,1011.31
2023-02-26T11:15:28.081Z,1011.3
2023-02-26T11:16:27.902Z,1011.28
2023-02-26T11:17:27.899Z,1011.32
2023-02-26T11:18:27.854Z,1011.36
2023-02-26T11:19:27.793Z,1011.37
2023-02-26T11:20:27.778Z,1011.33
2023-02-26T11:21:28.039Z,1011.37
2023-02-26T11:22:27.697Z,1011.36
2023-02-26T11:23:27.659Z,1011.43
2023-02-26T11:24:27.620Z,1011.37
2023-02-26T11:25:27.583Z,1011.33
2023-02-26T11:26:27.551Z,1011.36
2023-02-26T11:27:27.516Z,1011.3
2023-02-26T11:28:27.481Z,1011.38
2023-02-26T11:29:27.447Z,1011.39
2023-02-26T11:30:27.443Z,1011.49
2023-02-26T11:31:27.665Z,1011.36
2023-02-26T11:32:27.393Z,1011.36
2023-02-26T11:33:27.306Z,1011.36
2023-02-26T11:34:27.274Z,1011.41
2023-02-26T11:35:27.243Z,1011.49
2023-02-26T11:36:27.516Z,1011.43
2023-02-26T11:37:27.191Z,1011.39
2023-02-26T11:38:27.208Z,1011.41
2023-02-26T11:39:27.098Z,1011.36
2023-02-26T11:40:27.065Z,1011.4
2023-02-26T11:41:27.476Z,1011.39
2023-02-26T11:42:26.996Z,1011.61
2023-02-26T11:43:26.959Z,1011.58
2023-02-26T11:44:26.926Z,1011.42
2023-02-26T11:45:26.896Z,1011.38
2023-02-26T11:46:26.891Z,1011.42
2023-02-26T11:47:26.824Z,1011.36
2023-02-26T11:48:26.786Z,1011.33
2023-02-26T11:49:26.756Z,1011.28
2023-02-26T11:50:26.716Z,1011.19
2023-02-26T11:51:26.905Z,1011.34
2023-02-26T11:52:26.656Z,1011.25
2023-02-26T11:53:26.640Z,1011.24
2023-02-26T11:54:26.575Z,1011.57
2023-02-26T11:55:26.548Z,1011.32
2023-02-26T11:56:26.504Z,1011.26
2023-02-26T11:57:26.471Z,1011.33
2023-02-26T11:58:26.449Z,1011.32
2023-02-26T11:59:26.405Z,1011.23
2023-02-26T12:00:26.362Z,1011.22
2023-02-26T12:01:26.657Z,1011.18
2023-02-26T12:02:26.358Z,1011.15
2023-02-26T12:03:26.303Z,1011.19
2023-02-26T12:04:27.640Z,1011.21
2023-02-26T12:05:26.202Z,1011.26
2023-02-26T12:06:26.157Z,1011.23
2023-02-26T12:07:26.120Z,1011.12
2023-02-26T12:08:26.096Z,1011.22